This is the latest recevied weather packets stored in our database for station/object DL9GRB-13. If no packets are shown the sender has not sent any weather packets the latest 10 day(s).
| Time | Temp. | Humidity | Pressure | Rain* | Wind** | Luminosity | Snow |
|---|---|---|---|---|---|---|---|
| 1777197185 | 12.22° C | 34% | 1024.6 hPa | 0 mm | - | 671 W/m² | - |
| 1777197005 | 12.22° C | 35% | 1024.8 hPa | 0 mm | - | 668 W/m² | - |
| 1777196825 | 11.67° C | 36% | 1024.5 hPa | 0 mm | - | 665 W/m² | - |
| 1777196645 | 11.67° C | 35% | 1024.6 hPa | 0 mm | - | 661 W/m² | - |
| 1777196465 | 11.67° C | 39% | 1024.5 hPa | 0 mm | - | 655 W/m² | - |
| 1777196285 | 11.67° C | 37% | 1024.8 hPa | 0 mm | - | 651 W/m² | - |
| 1777196105 | 11.67° C | 38% | 1024.5 hPa | 0 mm | - | 648 W/m² | - |
| 1777195925 | 12.22° C | 37% | 1024.5 hPa | 0 mm | - | 643 W/m² | - |
| 1777195745 | 11.67° C | 38% | 1024.6 hPa | 0 mm | - | 639 W/m² | - |
| 1777195565 | 11.67° C | 40% | 1024.4 hPa | 0 mm | - | 632 W/m² | - |
| 1777195385 | 11.67° C | 40% | 1024.4 hPa | 0 mm | - | 626 W/m² | - |
| 1777195205 | 11.11° C | 40% | 1024.4 hPa | 0 mm | - | 621 W/m² | - |
| 1777195025 | 11.11° C | 38% | 1024.4 hPa | 0 mm | - | 614 W/m² | - |
| 1777194845 | 11.11° C | 39% | 1024.3 hPa | 0 mm | - | 607 W/m² | - |
| 1777194665 | 11.67° C | 38% | 1024.4 hPa | 0 mm | - | 602 W/m² | - |
| 1777194485 | 11.67° C | 39% | 1024.2 hPa | 0 mm | - | 594 W/m² | - |
| 1777194305 | 11.67° C | 38% | 1024.4 hPa | 0 mm | - | 588 W/m² | - |
| 1777194125 | 11.11° C | 40% | 1024.2 hPa | 0 mm | - | 581 W/m² | - |
| 1777193945 | 11.11° C | 39% | 1024.3 hPa | 0 mm | - | 573 W/m² | - |
| 1777193765 | 11.67° C | 38% | 1024.3 hPa | 0 mm | - | 565 W/m² | - |
| 1777193585 | 11.67° C | 39% | 1024.3 hPa | 0 mm | - | 559 W/m² | - |
| 1777193405 | 11.11° C | 39% | 1024.3 hPa | 0 mm | - | 552 W/m² | - |
| 1777193225 | 11.67° C | 38% | 1024.1 hPa | 0 mm | - | 546 W/m² | - |
| 1777193045 | 11.67° C | 38% | 1024.2 hPa | 0 mm | - | 540 W/m² | - |
| 1777192865 | 11.67° C | 40% | 1024.1 hPa | 0 mm | - | 533 W/m² | - |
* Rain latest hour (hover to see other rain measurements)
** Current wind speed in m/s (hover to see current wind gust speed)